createdAt,value
2022-09-22T00:01:39.285Z,102555.81
2022-09-22T00:04:10.082Z,102553.03
2022-09-22T00:06:41.020Z,102558.19
2022-09-22T00:09:12.944Z,102566.09
2022-09-22T00:11:44.035Z,102562.63
2022-09-22T00:14:15.455Z,102567.78
2022-09-22T00:16:47.857Z,102565.16
2022-09-22T00:19:20.066Z,102562.38
2022-09-22T00:21:48.962Z,102556.19
2022-09-22T00:24:18.521Z,102556.97
2022-09-22T00:26:46.935Z,102555.97
2022-09-22T00:29:17.067Z,102560.19
2022-09-22T00:31:46.851Z,102556.66
2022-09-22T00:34:18.318Z,102554.75
2022-09-22T00:36:47.482Z,102555.53
2022-09-22T00:39:17.754Z,102549.28
2022-09-22T00:41:49.721Z,102549.19
2022-09-22T00:44:42.670Z,102548.16
2022-09-22T00:47:22.701Z,102544.59
2022-09-22T00:49:55.124Z,102540.16
2022-09-22T00:52:28.622Z,102547.16
2022-09-22T00:54:59.645Z,102547.13
2022-09-22T00:57:32.233Z,102535.56
2022-09-22T01:00:02.594Z,102535.66
2022-09-22T01:02:33.466Z,102535.56
2022-09-22T01:05:01.735Z,102532.09
2022-09-22T01:07:31.555Z,102531.13
2022-09-22T01:09:59.928Z,102527.56
2022-09-22T01:12:30.871Z,102520.56
2022-09-22T01:15:22.659Z,102516.13
2022-09-22T01:18:15.354Z,102520.41
2022-09-22T01:21:26.151Z,102515.91
2022-09-22T01:24:34.678Z,102512.34
2022-09-22T01:27:32.461Z,102514.94
2022-09-22T01:30:22.479Z,102511.44
2022-09-22T01:33:06.283Z,102509.78
2022-09-22T01:35:45.967Z,102504.56
2022-09-22T01:38:19.953Z,102499.34
2022-09-22T01:40:52.601Z,102508.91
2022-09-22T01:43:33.035Z,102500.94
2022-09-22T01:46:08.205Z,102504.31
2022-09-22T01:48:38.360Z,102500.75
2022-09-22T01:51:14.048Z,102507.66
2022-09-22T01:53:47.903Z,102504.09
2022-09-22T01:56:19.512Z,102490.09
2022-09-22T01:58:51.136Z,102501.38
2022-09-22T02:01:24.193Z,102492.56
2022-09-22T02:04:01.751Z,102493.28
2022-09-22T02:06:37.373Z,102490.56
2022-09-22T02:09:11.031Z,102494.03
2022-09-22T02:11:39.808Z,102483.41
2022-09-22T02:14:08.741Z,102486.75
2022-09-22T02:16:38.677Z,102482.25
2022-09-22T02:19:13.481Z,102480.44
2022-09-22T02:21:45.918Z,102476.78
2022-09-22T02:24:32.192Z,102484.50
2022-09-22T02:27:03.931Z,102485.22
2022-09-22T02:29:36.117Z,102481.66
2022-09-22T02:32:10.732Z,102484.19
2022-09-22T02:34:39.589Z,102478.78
2022-09-22T02:37:18.975Z,102482.25
2022-09-22T02:39:57.920Z,102480.34
2022-09-22T02:42:30.568Z,102481.16
2022-09-22T02:45:06.981Z,102473.28
2022-09-22T02:47:42.264Z,102477.59
2022-09-22T02:50:13.317Z,102467.91
2022-09-22T02:52:42.166Z,102479.13
2022-09-22T02:55:12.242Z,102465.97
2022-09-22T02:57:40.505Z,102468.44
2022-09-22T03:00:10.018Z,102464.91
2022-09-22T03:02:39.678Z,102456.13
2022-09-22T03:05:08.867Z,102460.41
2022-09-22T03:07:37.112Z,102458.56
2022-09-22T03:10:06.701Z,102453.28
2022-09-22T03:12:34.937Z,102449.69
2022-09-22T03:15:03.114Z,102451.44
2022-09-22T03:17:32.877Z,102452.31
2022-09-22T03:20:02.732Z,102447.09
2022-09-22T03:22:30.818Z,102441.00
2022-09-22T03:24:59.293Z,102444.31
2022-09-22T03:27:27.597Z,102439.78
2022-09-22T03:29:55.844Z,102431.84
2022-09-22T03:32:23.986Z,102431.78
2022-09-22T03:34:52.109Z,102430.81
2022-09-22T03:37:21.662Z,102423.75
2022-09-22T03:39:49.851Z,102425.50
2022-09-22T03:42:18.340Z,102430.72
2022-09-22T03:44:46.633Z,102428.91
2022-09-22T03:47:14.733Z,102428.09
2022-09-22T03:49:43.015Z,102428.03
2022-09-22T03:52:11.395Z,102427.16
2022-09-22T03:54:40.844Z,102425.38
2022-09-22T03:57:09.104Z,102428.78
2022-09-22T03:59:37.233Z,102430.44
2022-09-22T04:02:05.481Z,102424.28
2022-09-22T04:04:33.752Z,102427.72
2022-09-22T04:07:07.458Z,102426.78
2022-09-22T04:09:35.947Z,102426.66
2022-09-22T04:12:06.494Z,102423.09
2022-09-22T04:14:34.630Z,102426.41
2022-09-22T04:17:05.223Z,102419.28
2022-09-22T04:19:35.785Z,102418.38
2022-09-22T04:22:04.302Z,102419.16
2022-09-22T04:24:33.779Z,102420.72
2022-09-22T04:27:19.092Z,102415.53
2022-09-22T04:29:48.983Z,102413.69
2022-09-22T04:32:17.242Z,102416.22
2022-09-22T04:34:45.529Z,102412.72
2022-09-22T04:37:13.832Z,102410.88
2022-09-22T04:39:42.644Z,102417.75
2022-09-22T04:42:10.908Z,102415.06
2022-09-22T04:44:39.059Z,102415.06
2022-09-22T04:47:08.765Z,102414.19
2022-09-22T04:49:36.870Z,102408.91
2022-09-22T04:52:05.844Z,102405.41
2022-09-22T04:54:33.994Z,102410.63
2022-09-22T04:57:02.857Z,102405.41
2022-09-22T04:59:30.986Z,102416.72
2022-09-22T05:02:00.156Z,102414.09
2022-09-22T05:04:29.889Z,102414.09
2022-09-22T05:06:59.463Z,102415.03
2022-09-22T05:09:28.160Z,102405.38
2022-09-22T05:11:59.581Z,102414.00
2022-09-22T05:14:28.199Z,102416.59
2022-09-22T05:16:56.510Z,102415.72
2022-09-22T05:19:24.958Z,102419.19
2022-09-22T05:21:55.039Z,102423.59
2022-09-22T05:24:23.218Z,102420.16
2022-09-22T05:26:51.614Z,102415.13
2022-09-22T05:29:20.552Z,102417.94
2022-09-22T05:31:50.817Z,102410.13
2022-09-22T05:34:19.168Z,102419.16
2022-09-22T05:36:47.495Z,102424.50
2022-09-22T05:39:16.981Z,102420.41
2022-09-22T05:41:45.076Z,102423.31
2022-09-22T05:44:13.238Z,102427.03
2022-09-22T05:46:41.302Z,102425.50
2022-09-22T05:49:09.543Z,102429.16
2022-09-22T05:51:37.650Z,102425.00
2022-09-22T05:54:06.118Z,102430.56
2022-09-22T05:56:35.711Z,102431.63
2022-09-22T05:59:03.881Z,102428.31
2022-09-22T06:01:32.062Z,102430.22
2022-09-22T06:04:00.263Z,102431.16
2022-09-22T06:06:28.378Z,102433.97
2022-09-22T06:08:56.706Z,102424.56
2022-09-22T06:11:24.853Z,102428.31
2022-09-22T06:13:54.316Z,102427.63
2022-09-22T06:16:22.472Z,102431.38
2022-09-22T06:18:50.694Z,102432.63
2022-09-22T06:21:18.858Z,102435.63
2022-09-22T06:23:46.987Z,102436.78
2022-09-22T06:26:15.134Z,102425.78
2022-09-22T06:28:43.230Z,102420.06
2022-09-22T06:31:15.117Z,102422.13
2022-09-22T06:33:48.192Z,102425.06
2022-09-22T06:36:23.953Z,102415.81
2022-09-22T06:38:54.125Z,102421.28
2022-09-22T06:41:22.397Z,102413.75
2022-09-22T06:43:52.660Z,102411.41
2022-09-22T06:46:24.583Z,102412.59
2022-09-22T06:48:54.014Z,102419.00
2022-09-22T06:51:22.114Z,102413.94
2022-09-22T06:53:52.036Z,102415.88
2022-09-22T06:56:20.594Z,102413.47
2022-09-22T06:59:08.899Z,102415.38
2022-09-22T07:01:39.238Z,102412.97
2022-09-22T07:04:07.912Z,102418.44
2022-09-22T07:06:37.265Z,102410.84
2022-09-22T07:09:06.503Z,102418.16
2022-09-22T07:11:39.505Z,102423.75
2022-09-22T07:14:09.113Z,102424.09
2022-09-22T07:16:40.724Z,102422.84
2022-09-22T07:19:09.189Z,102423.28
2022-09-22T07:21:37.762Z,102419.38
2022-09-22T07:24:08.408Z,102419.81
2022-09-22T07:26:39.170Z,102408.84
2022-09-22T07:29:13.111Z,102417.97
2022-09-22T07:31:43.185Z,102416.59
2022-09-22T07:34:12.743Z,102416.06
2022-09-22T07:36:40.909Z,102420.72
2022-09-22T07:39:11.497Z,102411.41
2022-09-22T07:41:42.994Z,102415.25
2022-09-22T07:44:30.791Z,102408.56
2022-09-22T07:47:01.288Z,102415.88
2022-09-22T07:49:29.712Z,102413.50
2022-09-22T07:51:58.449Z,102405.94
2022-09-22T07:54:28.303Z,102399.16
2022-09-22T07:56:58.532Z,102404.59
2022-09-22T07:59:27.656Z,102401.34
2022-09-22T08:01:56.113Z,102403.31
2022-09-22T08:04:26.703Z,102401.78
2022-09-22T08:06:56.571Z,102403.75
2022-09-22T08:09:25.562Z,102404.84
2022-09-22T08:11:54.700Z,102405.91
2022-09-22T08:14:24.274Z,102408.72
2022-09-22T08:16:53.883Z,102402.81
2022-09-22T08:19:25.499Z,102405.66
2022-09-22T08:21:55.000Z,102401.41
2022-09-22T08:24:23.914Z,102401.59
2022-09-22T08:26:55.699Z,102404.38
2022-09-22T08:29:24.693Z,102406.25
2022-09-22T08:31:54.167Z,102397.66
2022-09-22T08:34:23.125Z,102399.50
2022-09-22T08:36:52.667Z,102404.91
2022-09-22T08:39:20.921Z,102398.06
2022-09-22T08:42:05.904Z,102399.97
2022-09-22T08:44:41.904Z,102391.31
2022-09-22T08:47:38.549Z,102404.59
2022-09-22T08:50:42.962Z,102394.19
2022-09-22T08:53:17.210Z,102397.84
2022-09-22T08:55:51.951Z,102402.38
2022-09-22T08:58:32.290Z,102398.94
2022-09-22T09:01:18.451Z,102405.22
2022-09-22T09:03:57.808Z,102397.38
2022-09-22T09:06:36.598Z,102395.72
2022-09-22T09:09:38.355Z,102405.50
2022-09-22T09:12:35.317Z,102399.38
2022-09-22T09:15:34.422Z,102398.56
2022-09-22T09:18:17.918Z,102388.03
2022-09-22T09:20:48.554Z,102388.97
2022-09-22T09:23:19.697Z,102385.47
2022-09-22T09:25:52.305Z,102381.06
2022-09-22T09:28:28.039Z,102384.66
2022-09-22T09:31:04.617Z,102378.50
2022-09-22T09:33:43.749Z,102375.88
2022-09-22T09:36:18.070Z,102377.63
2022-09-22T09:38:51.004Z,102374.06
2022-09-22T09:41:24.769Z,102378.50
2022-09-22T09:43:55.703Z,102382.03
2022-09-22T09:46:40.205Z,102369.66
2022-09-22T09:49:14.377Z,102375.81
2022-09-22T09:51:46.644Z,102372.25
2022-09-22T09:54:18.513Z,102379.31
2022-09-22T09:57:10.148Z,102372.25
2022-09-22T09:59:57.893Z,102374.00
2022-09-22T10:02:29.177Z,102367.78
2022-09-22T10:05:00.165Z,102367.72
2022-09-22T10:10:33.722Z,102367.63
2022-09-22T10:13:29.465Z,102365.81
2022-09-22T10:16:22.490Z,102358.66
2022-09-22T10:18:53.162Z,102363.06
2022-09-22T10:21:23.132Z,102360.38
2022-09-22T10:23:52.522Z,102358.53
2022-09-22T10:26:26.240Z,102360.28
2022-09-22T10:29:19.152Z,102354.94
2022-09-22T10:32:17.511Z,102356.72
2022-09-22T10:34:48.522Z,102354.91
2022-09-22T10:37:19.386Z,102357.44
2022-09-22T10:39:50.200Z,102352.88
2022-09-22T10:42:34.259Z,102349.22
2022-09-22T10:45:10.192Z,102349.09
2022-09-22T10:47:57.690Z,102342.81
2022-09-22T10:50:59.527Z,102345.38
2022-09-22T10:53:51.959Z,102340.75
2022-09-22T10:56:30.844Z,102343.16
2022-09-22T10:59:42.908Z,102334.06
2022-09-22T11:03:04.973Z,102335.53
2022-09-22T11:06:02.257Z,102331.75
2022-09-22T11:08:58.327Z,102325.94
2022-09-22T11:11:50.913Z,102328.03
2022-09-22T11:14:36.526Z,102329.84
2022-09-22T11:17:21.243Z,102325.66
2022-09-22T11:20:23.141Z,102325.09
2022-09-22T11:23:16.544Z,102315.41
2022-09-22T11:26:04.762Z,102301.03
2022-09-22T11:29:01.948Z,102302.94
2022-09-22T11:31:43.209Z,102288.84
2022-09-22T11:35:13.340Z,102288.91
2022-09-22T11:37:53.115Z,102299.53
2022-09-22T11:40:34.137Z,102293.81
2022-09-22T11:43:21.736Z,102290.66
2022-09-22T11:45:57.802Z,102286.75
2022-09-22T11:48:44.088Z,102282.63
2022-09-22T11:51:35.175Z,102284.72
2022-09-22T11:54:49.522Z,102277.22
2022-09-22T11:57:23.714Z,102268.69
2022-09-22T11:59:56.156Z,102266.50
2022-09-22T12:02:32.327Z,102262.63
2022-09-22T12:05:04.652Z,102272.66
2022-09-22T12:07:44.783Z,102269.19
2022-09-22T12:10:22.959Z,102269.38
2022-09-22T12:12:51.794Z,102270.00
2022-09-22T12:15:29.793Z,102262.19
2022-09-22T12:18:10.899Z,102273.53
2022-09-22T12:20:55.173Z,102264.78
2022-09-22T12:23:40.075Z,102261.72
2022-09-22T12:26:12.484Z,102259.72
2022-09-22T12:28:43.430Z,102248.41
2022-09-22T12:31:14.181Z,102249.06
2022-09-22T12:33:49.874Z,102246.44
2022-09-22T12:36:20.000Z,102236.97
2022-09-22T12:38:48.293Z,102242.91
2022-09-22T12:41:21.323Z,102238.53
2022-09-22T12:43:49.589Z,102236.00
2022-09-22T12:46:27.824Z,102235.78
2022-09-22T12:48:56.261Z,102232.34
2022-09-22T12:51:34.702Z,102234.25
2022-09-22T12:54:39.403Z,102221.31
2022-09-22T12:57:28.675Z,102217.72
2022-09-22T13:00:08.498Z,102220.56
2022-09-22T13:02:44.580Z,102200.97
2022-09-22T13:05:36.906Z,102212.16
2022-09-22T13:08:05.479Z,102210.66
2022-09-22T13:11:00.084Z,102213.47
2022-09-22T13:13:42.223Z,102207.19
2022-09-22T13:16:35.875Z,102206.09
2022-09-22T13:19:09.923Z,102205.06
2022-09-22T13:21:41.568Z,102197.25
2022-09-22T13:24:27.373Z,102191.47
2022-09-22T13:27:05.710Z,102175.19
2022-09-22T13:29:36.410Z,102179.13
2022-09-22T13:32:21.604Z,102176.38
2022-09-22T13:34:49.712Z,102172.13
2022-09-22T13:37:22.099Z,102180.66
2022-09-22T13:39:54.369Z,102169.59
2022-09-22T13:42:31.308Z,102165.09
2022-09-22T13:45:06.335Z,102165.75
2022-09-22T13:47:36.735Z,102171.25
2022-09-22T13:50:08.321Z,102163.06
2022-09-22T13:52:39.373Z,102158.44
2022-09-22T13:55:13.984Z,102152.47
2022-09-22T13:57:43.762Z,102154.22
2022-09-22T14:00:26.315Z,102144.31
2022-09-22T14:02:57.270Z,102146.81
2022-09-22T14:05:28.562Z,102145.69
2022-09-22T14:08:12.015Z,102147.47
2022-09-22T14:10:43.505Z,102134.44
2022-09-22T14:13:40.453Z,102141.16
2022-09-22T14:16:21.763Z,102131.31
2022-09-22T14:18:54.586Z,102125.59
2022-09-22T14:21:23.448Z,102126.94
2022-09-22T14:23:52.863Z,102117.56
2022-09-22T14:26:36.410Z,102122.78
2022-09-22T14:29:19.609Z,102114.66
2022-09-22T14:31:53.666Z,102118.94
2022-09-22T14:34:27.459Z,102115.06
2022-09-22T14:36:56.610Z,102116.56
2022-09-22T14:39:33.994Z,102109.63
2022-09-22T14:42:11.999Z,102099.50
2022-09-22T14:44:46.069Z,102104.81
2022-09-22T14:47:26.707Z,102101.66
2022-09-22T14:50:19.121Z,102097.34
2022-09-22T14:52:56.981Z,102099.06
2022-09-22T14:55:34.432Z,102088.00
2022-09-22T14:58:13.099Z,102084.41
2022-09-22T15:01:11.808Z,102083.41
2022-09-22T15:03:44.747Z,102084.91
2022-09-22T15:06:15.673Z,102095.97
2022-09-22T15:08:49.943Z,102093.38
2022-09-22T15:11:18.886Z,102094.78
2022-09-22T15:13:50.774Z,102091.66
2022-09-22T15:16:46.568Z,102089.06
2022-09-22T15:19:16.081Z,102085.13
2022-09-22T15:21:48.423Z,102084.31
2022-09-22T15:24:21.298Z,102080.25
2022-09-22T15:26:49.625Z,102080.84
2022-09-22T15:29:17.791Z,102071.66
2022-09-22T15:31:46.999Z,102080.84
2022-09-22T15:34:16.629Z,102073.69
2022-09-22T15:36:49.922Z,102067.63
2022-09-22T15:39:21.940Z,102073.03
2022-09-22T15:41:50.515Z,102068.97
2022-09-22T15:44:18.993Z,102073.59
2022-09-22T15:46:51.534Z,102063.09
2022-09-22T15:49:26.198Z,102060.50
2022-09-22T15:51:55.935Z,102068.22
2022-09-22T15:54:26.098Z,102057.06
2022-09-22T15:56:56.049Z,102063.66
2022-09-22T15:59:28.122Z,102050.97
2022-09-22T16:01:57.495Z,102056.03
2022-09-22T16:04:34.218Z,102053.66
2022-09-22T16:07:05.961Z,102049.75
2022-09-22T16:09:34.296Z,102048.53
2022-09-22T16:12:03.163Z,102048.34
2022-09-22T16:14:31.383Z,102044.06
2022-09-22T16:16:59.666Z,102041.38
2022-09-22T16:19:31.966Z,102038.53
2022-09-22T16:22:00.102Z,102042.41
2022-09-22T16:24:29.002Z,102042.88
2022-09-22T16:26:57.206Z,102039.47
2022-09-22T16:29:25.611Z,102035.75
2022-09-22T16:31:54.168Z,102027.34
2022-09-22T16:34:22.371Z,102038.84
2022-09-22T16:36:52.542Z,102036.44
2022-09-22T16:39:20.760Z,102035.88
2022-09-22T16:41:48.970Z,102040.81
2022-09-22T16:44:17.326Z,102040.13
2022-09-22T16:46:45.612Z,102043.50
2022-09-22T16:49:17.242Z,102044.25
2022-09-22T16:51:49.470Z,102034.66
2022-09-22T16:54:20.183Z,102035.41
2022-09-22T16:56:50.463Z,102033.44
2022-09-22T16:59:21.207Z,102035.91
2022-09-22T17:01:51.132Z,102032.88
2022-09-22T17:04:19.979Z,102038.53
2022-09-22T17:06:48.850Z,102041.25
2022-09-22T17:09:19.345Z,102040.38
2022-09-22T17:11:49.098Z,102040.25
2022-09-22T17:14:21.047Z,102041.00
2022-09-22T17:16:52.180Z,102024.84
2022-09-22T17:19:22.618Z,102034.28
2022-09-22T17:21:54.185Z,102037.47
2022-09-22T17:24:25.194Z,102033.50
2022-09-22T17:26:55.897Z,102035.72
2022-09-22T17:29:26.697Z,102029.00
2022-09-22T17:31:57.577Z,102020.53
2022-09-22T17:34:26.059Z,102029.66
2022-09-22T17:36:55.528Z,102034.34
2022-09-22T17:39:27.475Z,102035.44
2022-09-22T17:41:56.268Z,102028.53
2022-09-22T17:44:28.355Z,102031.31
2022-09-22T17:47:14.231Z,102034.09
2022-09-22T17:49:59.784Z,102027.16
2022-09-22T17:52:46.062Z,102023.72
2022-09-22T17:55:22.059Z,102021.13
2022-09-22T17:57:52.655Z,102025.59
2022-09-22T18:00:22.938Z,102022.13
2022-09-22T18:02:54.138Z,102025.66
2022-09-22T18:05:26.787Z,102022.16
2022-09-22T18:07:58.391Z,102017.78
2022-09-22T18:10:32.195Z,102024.81
2022-09-22T18:13:01.241Z,102020.44
2022-09-22T18:15:29.565Z,102009.81
2022-09-22T18:17:58.476Z,102016.84
2022-09-22T18:20:27.665Z,102020.34
2022-09-22T18:22:57.814Z,102021.22
2022-09-22T18:25:28.177Z,102015.91
2022-09-22T18:27:57.260Z,102022.06
2022-09-22T18:30:25.741Z,102026.44
2022-09-22T18:32:54.939Z,102017.59
2022-09-22T18:35:24.091Z,102028.13
2022-09-22T18:37:52.203Z,102020.16
2022-09-22T18:40:20.373Z,102026.28
2022-09-22T18:42:50.160Z,102024.47
2022-09-22T18:45:19.380Z,102024.41
2022-09-22T18:47:47.487Z,102025.22
2022-09-22T18:50:16.378Z,102026.06
2022-09-22T18:52:45.857Z,102027.78
2022-09-22T18:55:17.295Z,102021.59
2022-09-22T18:57:47.392Z,102026.81
2022-09-22T19:00:21.987Z,102025.03
2022-09-22T19:02:50.470Z,102031.13
2022-09-22T19:05:19.232Z,102022.28
2022-09-22T19:07:48.277Z,102031.03
2022-09-22T19:10:21.857Z,102023.94
2022-09-22T19:12:50.719Z,102024.78
2022-09-22T19:15:20.855Z,102028.25
2022-09-22T19:17:50.569Z,102019.44
2022-09-22T19:20:23.633Z,102014.13
2022-09-22T19:22:52.672Z,102015.84
2022-09-22T19:25:22.287Z,102019.31
2022-09-22T19:27:54.691Z,102014.91
2022-09-22T19:30:28.570Z,102016.56
2022-09-22T19:32:57.797Z,102014.78
2022-09-22T19:35:26.414Z,102019.13
2022-09-22T19:37:54.639Z,102016.44
2022-09-22T19:40:25.023Z,102014.63
2022-09-22T19:42:54.351Z,102014.53
2022-09-22T19:45:25.557Z,102010.09
2022-09-22T19:47:56.282Z,102013.53
2022-09-22T19:50:24.907Z,102006.44
2022-09-22T19:52:53.100Z,102012.53
2022-09-22T19:55:21.807Z,102008.97
2022-09-22T19:57:53.991Z,102006.28
2022-09-22T20:00:26.677Z,102000.94
2022-09-22T20:02:58.646Z,102001.75
2022-09-22T20:05:31.763Z,102000.84
2022-09-22T20:08:01.404Z,102004.28
2022-09-22T20:10:31.558Z,101996.38
2022-09-22T20:13:00.314Z,101998.06
2022-09-22T20:15:29.933Z,101991.00
2022-09-22T20:17:58.159Z,101995.31
2022-09-22T20:20:26.883Z,102001.44
2022-09-22T20:23:00.363Z,101998.75
2022-09-22T20:25:32.094Z,101995.22
2022-09-22T20:28:00.333Z,102000.44
2022-09-22T20:30:30.045Z,101994.28
2022-09-22T20:32:59.024Z,101986.41
2022-09-22T20:35:27.254Z,101987.25
2022-09-22T20:37:59.225Z,101986.34
2022-09-22T20:40:28.966Z,101981.94
2022-09-22T20:42:57.234Z,101974.00
2022-09-22T20:45:25.453Z,101984.50
2022-09-22T20:47:56.149Z,101982.75
2022-09-22T20:50:24.399Z,101978.34
2022-09-22T20:52:52.609Z,101980.97
2022-09-22T20:55:22.419Z,101980.94
2022-09-22T20:57:50.562Z,101987.03
2022-09-22T21:00:18.774Z,101976.44
2022-09-22T21:02:47.379Z,101980.81
2022-09-22T21:05:17.404Z,101970.28
2022-09-22T21:07:45.624Z,101971.19
2022-09-22T21:10:31.777Z,101968.56
2022-09-22T21:13:00.442Z,101978.22
2022-09-22T21:15:30.088Z,101961.56
2022-09-22T21:17:58.528Z,101965.09
2022-09-22T21:20:28.161Z,101963.38
2022-09-22T21:22:56.734Z,101962.53
2022-09-22T21:25:25.318Z,101965.19
2022-09-22T21:27:53.444Z,101959.09
2022-09-22T21:30:21.567Z,101955.63
2022-09-22T21:32:49.760Z,101960.94
2022-09-22T21:35:18.487Z,101954.81
2022-09-22T21:37:48.094Z,101963.59
2022-09-22T21:40:17.496Z,101957.47
2022-09-22T21:42:45.751Z,101961.00
2022-09-22T21:45:14.021Z,101957.50
2022-09-22T21:47:42.157Z,101949.59
2022-09-22T21:50:11.046Z,101953.09
2022-09-22T21:52:39.415Z,101953.09
2022-09-22T21:55:10.273Z,101947.84
2022-09-22T21:57:38.387Z,101950.47
2022-09-22T22:00:09.327Z,101947.84
2022-09-22T22:02:57.711Z,101939.09
2022-09-22T22:05:26.887Z,101940.84
2022-09-22T22:07:55.192Z,101931.22
2022-09-22T22:10:24.970Z,101938.25
2022-09-22T22:12:53.149Z,101932.09
2022-09-22T22:15:21.222Z,101940.84
2022-09-22T22:17:49.370Z,101932.09
2022-09-22T22:20:17.697Z,101927.69
2022-09-22T22:22:46.717Z,101925.06
2022-09-22T22:25:18.530Z,101930.34
2022-09-22T22:27:48.073Z,101925.94
2022-09-22T22:30:18.985Z,101916.28
2022-09-22T22:32:47.289Z,101921.53
2022-09-22T22:35:15.628Z,101914.50
2022-09-22T22:37:45.710Z,101910.09
2022-09-22T22:40:13.948Z,101907.47
2022-09-22T22:42:42.193Z,101904.78
2022-09-22T22:45:12.253Z,101903.91
2022-09-22T22:47:40.437Z,101904.75
2022-09-22T22:50:10.612Z,101903.88
2022-09-22T22:52:40.211Z,101905.63
2022-09-22T22:55:10.424Z,101893.34
2022-09-22T22:57:38.543Z,101896.84
2022-09-22T23:00:08.466Z,101892.44
2022-09-22T23:02:38.642Z,101888.06
2022-09-22T23:05:08.477Z,101889.78
2022-09-22T23:07:36.653Z,101881.03
2022-09-22T23:10:08.181Z,101880.13
2022-09-22T23:12:39.990Z,101873.94
2022-09-22T23:15:10.640Z,101870.41
2022-09-22T23:17:40.495Z,101869.50
2022-09-22T23:20:10.195Z,101863.34
2022-09-22T23:22:38.269Z,101858.06
2022-09-22T23:25:07.094Z,101858.94
2022-09-22T23:27:35.230Z,101871.16
2022-09-22T23:30:03.611Z,101865.00
2022-09-22T23:32:31.704Z,101861.47
2022-09-22T23:35:01.703Z,101861.44
2022-09-22T23:37:29.778Z,101864.91
2022-09-22T23:39:58.460Z,101854.38
2022-09-22T23:42:26.662Z,101857.84
2022-09-22T23:44:54.723Z,101856.03
2022-09-22T23:47:22.814Z,101848.13
2022-09-22T23:49:50.916Z,101845.44
2022-09-22T23:52:22.466Z,101845.44
2022-09-22T23:54:50.578Z,101842.78
2022-09-22T23:57:18.705Z,101832.25
2022-09-22T23:59:46.817Z,101837.44
